Time;durP1;ratioP1;P1;durP2;ratioP2;P2;SDS_P1;SDS_P2;PMS_P1;PMS_P2;Temp;Humidity;BMP_temperature;BMP_pressure;BME280_temperature;BME280_humidity;BME280_pressure;Samples;Min_cycle;Max_cycle;Signal;HPM_P1;HPM_P2
2021/10/24 00:00:49;;;;;;;0.90;0.70;;;8.10;99.90;;;;;;5054263;28;20661;-68
2021/10/24 00:03:17;;;;;;;0.90;0.60;;;8.10;99.90;;;;;;5054624;28;20264;-66
2021/10/24 00:05:46;;;;;;;0.90;0.57;;;8.10;99.90;;;;;;5054939;28;20184;-67
2021/10/24 00:08:14;;;;;;;1.00;0.90;;;8.10;99.90;;;;;;5054962;28;20299;-67
2021/10/24 00:10:42;;;;;;;0.90;0.70;;;8.10;99.90;;;;;;5055455;28;20661;-68
2021/10/24 00:13:12;;;;;;;0.80;0.50;;;8.20;99.90;;;;;;5053808;28;20217;-69
2021/10/24 00:15:40;;;;;;;1.75;0.73;;;8.20;99.90;;;;;;5035879;28;20200;-68
2021/10/24 00:18:10;;;;;;;1.60;1.50;;;8.30;99.90;;;;;;5054324;28;20233;-67
2021/10/24 00:20:38;;;;;;;1.13;1.02;;;8.20;99.90;;;;;;5055067;28;20169;-68
2021/10/24 00:23:06;;;;;;;1.35;0.60;;;8.20;99.90;;;;;;5053561;28;20572;-68
2021/10/24 00:25:34;;;;;;;0.80;0.50;;;8.10;99.90;;;;;;5053512;28;20177;-68
2021/10/24 00:28:04;;;;;;;0.90;0.60;;;8.20;99.90;;;;;;5053479;28;20562;-68
2021/10/24 00:30:49;;;;;;;0.80;0.50;;;8.20;99.90;;;;;;5035576;28;20722;-68
2021/10/24 00:33:19;;;;;;;0.90;0.60;;;8.10;99.90;;;;;;5053047;28;20288;-68
2021/10/24 00:35:48;;;;;;;0.90;0.50;;;8.20;99.90;;;;;;5052999;28;20287;-67
2021/10/24 00:38:17;;;;;;;1.30;0.98;;;8.20;99.90;;;;;;5035010;28;20211;-68
2021/10/24 00:40:45;;;;;;;0.80;0.60;;;8.20;99.90;;;;;;5052841;28;20660;-68
2021/10/24 00:43:13;;;;;;;0.90;0.70;;;8.20;99.90;;;;;;5034850;28;20212;-68
2021/10/24 00:45:42;;;;;;;1.00;0.77;;;8.20;99.90;;;;;;5034414;28;20196;-68
2021/10/24 00:48:10;;;;;;;1.13;0.70;;;8.30;99.90;;;;;;5052726;28;20553;-69
2021/10/24 00:50:42;;;;;;;0.80;0.50;;;8.30;99.90;;;;;;5034806;28;20189;-69
2021/10/24 00:53:13;;;;;;;1.08;0.77;;;8.30;99.90;;;;;;5052714;28;20250;-67
2021/10/24 00:55:42;;;;;;;0.95;0.77;;;8.20;99.90;;;;;;5052618;28;20181;-70
2021/10/24 00:58:12;;;;;;;2.10;1.02;;;8.20;99.90;;;;;;5052523;28;20181;-69
2021/10/24 01:00:41;;;;;;;0.90;0.60;;;8.10;99.90;;;;;;5052690;28;20177;-68
2021/10/24 01:03:09;;;;;;;1.67;1.30;;;8.00;99.90;;;;;;5052431;28;20204;-68
2021/10/24 01:05:39;;;;;;;1.17;1.02;;;8.00;99.90;;;;;;5052445;28;20192;-69
2021/10/24 01:08:09;;;;;;;0.90;0.75;;;8.10;99.90;;;;;;5034507;28;20185;-70
2021/10/24 01:10:38;;;;;;;0.90;0.50;;;8.00;99.90;;;;;;5052283;28;20192;-69
2021/10/24 01:13:06;;;;;;;0.90;0.75;;;7.90;99.90;;;;;;5034094;28;20647;-68
2021/10/24 01:15:34;;;;;;;0.80;0.60;;;7.90;99.90;;;;;;5034296;28;20291;-68
2021/10/24 01:18:05;;;;;;;1.63;1.52;;;8.00;99.90;;;;;;5034042;28;20595;-68
2021/10/24 01:20:33;;;;;;;1.15;0.80;;;7.90;99.90;;;;;;5033855;28;20192;-69
2021/10/24 01:23:03;;;;;;;0.80;0.50;;;7.80;99.90;;;;;;5033731;28;20258;-68
2021/10/24 01:25:31;;;;;;;0.90;0.50;;;7.70;99.90;;;;;;5034185;28;20556;-66
2021/10/24 01:28:01;;;;;;;0.90;0.60;;;7.60;99.90;;;;;;5051909;28;20599;-68
2021/10/24 01:30:29;;;;;;;1.17;0.98;;;7.60;99.90;;;;;;5034169;28;20199;-69
2021/10/24 01:32:58;;;;;;;1.58;1.00;;;7.70;99.90;;;;;;5034061;28;20610;-68
2021/10/24 01:35:29;;;;;;;0.80;0.60;;;7.60;99.90;;;;;;5033996;28;20216;-69
2021/10/24 01:37:58;;;;;;;1.00;0.60;;;7.50;99.90;;;;;;5034565;28;20662;-69
2021/10/24 01:40:28;;;;;;;0.80;0.50;;;7.40;99.90;;;;;;5033940;28;20562;-69
2021/10/24 01:42:57;;;;;;;0.85;0.60;;;7.40;99.90;;;;;;5034397;28;20231;-68
2021/10/24 01:45:29;;;;;;;0.80;0.50;;;7.40;99.90;;;;;;5034901;28;20189;-69
2021/10/24 01:48:14;;;;;;;1.33;1.23;;;7.40;99.90;;;;;;5034819;28;20197;-69
2021/10/24 01:50:43;;;;;;;0.80;0.50;;;7.30;99.90;;;;;;5033705;28;20189;-70
2021/10/24 01:53:11;;;;;;;4.00;1.00;;;7.20;99.90;;;;;;5033884;28;20213;-68
2021/10/24 01:55:41;;;;;;;0.80;0.50;;;7.10;99.90;;;;;;5033547;28;20199;-69
2021/10/24 01:58:09;;;;;;;0.90;0.70;;;7.00;99.90;;;;;;5032877;28;20515;-69
2021/10/24 02:00:37;;;;;;;0.80;0.60;;;6.90;99.90;;;;;;5033463;28;20261;-69
2021/10/24 02:03:06;;;;;;;0.90;0.60;;;6.80;99.90;;;;;;5033596;28;20264;-69
2021/10/24 02:05:43;;;;;;;1.05;0.60;;;6.70;99.90;;;;;;5033641;28;20215;-68
2021/10/24 02:08:12;;;;;;;1.10;0.60;;;6.70;99.90;;;;;;5033860;28;20188;-70
2021/10/24 02:10:42;;;;;;;1.00;0.60;;;6.70;99.90;;;;;;5033484;28;20185;-67
2021/10/24 02:13:13;;;;;;;2.17;0.75;;;6.70;99.90;;;;;;5033484;28;20303;-69
2021/10/24 02:15:42;;;;;;;1.40;0.63;;;6.70;99.90;;;;;;5033308;28;20250;-69
2021/10/24 02:18:11;;;;;;;0.90;0.50;;;6.80;99.90;;;;;;5033891;28;20222;-66
2021/10/24 02:20:43;;;;;;;1.20;1.00;;;6.70;99.90;;;;;;5034420;28;20204;-66
2021/10/24 02:23:12;;;;;;;1.23;0.57;;;6.70;99.90;;;;;;5033973;28;20232;-67
2021/10/24 02:25:41;;;;;;;0.88;0.60;;;6.60;99.90;;;;;;5034475;28;20677;-69
2021/10/24 02:28:10;;;;;;;1.13;0.80;;;6.50;99.90;;;;;;5033516;28;20275;-68
2021/10/24 02:30:38;;;;;;;1.00;0.90;;;6.50;99.90;;;;;;5033177;28;20246;-67
2021/10/24 02:33:44;;;;;;;0.80;0.50;;;6.40;99.90;;;;;;5050751;28;20845;-67
2021/10/24 02:36:33;;;;;;;4.38;1.50;;;6.40;99.90;;;;;;5050141;28;20219;-68
2021/10/24 02:39:04;;;;;;;0.80;0.60;;;6.40;99.90;;;;;;5033413;28;20330;-66
2021/10/24 02:41:39;;;;;;;1.20;1.10;;;6.40;99.90;;;;;;5032861;28;20220;-68
2021/10/24 02:44:08;;;;;;;0.80;0.50;;;6.30;99.90;;;;;;5033501;28;20216;-69
2021/10/24 02:46:44;;;;;;;2.38;0.88;;;6.30;99.90;;;;;;5033397;28;20543;-69
2021/10/24 02:49:13;;;;;;;1.38;0.63;;;6.30;99.90;;;;;;5052271;28;20189;-69
2021/10/24 02:51:49;;;;;;;1.10;0.90;;;6.30;99.90;;;;;;5033073;28;20251;-68
2021/10/24 02:54:19;;;;;;;0.95;0.82;;;6.20;99.90;;;;;;5032858;28;20204;-69
2021/10/24 02:56:49;;;;;;;0.95;0.85;;;6.20;99.90;;;;;;5033041;28;20258;-69
2021/10/24 02:59:18;;;;;;;1.02;0.73;;;6.30;99.90;;;;;;5033082;28;20605;-68
2021/10/24 03:01:48;;;;;;;0.82;0.52;;;6.20;99.90;;;;;;5033084;28;20222;-68
2021/10/24 03:04:17;;;;;;;0.80;0.50;;;6.20;99.90;;;;;;5033669;28;20243;-68
2021/10/24 03:06:48;;;;;;;1.77;1.08;;;6.10;99.90;;;;;;5033003;28;20207;-67
2021/10/24 03:09:16;;;;;;;1.23;0.85;;;6.10;99.90;;;;;;5034107;28;20197;-68
2021/10/24 03:11:45;;;;;;;1.10;1.00;;;6.00;99.90;;;;;;5037045;28;20271;-68
2021/10/24 03:14:16;;;;;;;1.10;0.82;;;6.00;99.90;;;;;;5037013;28;20312;-68
2021/10/24 03:16:45;;;;;;;1.55;0.65;;;6.00;99.90;;;;;;5036613;28;20201;-68
2021/10/24 03:19:14;;;;;;;1.00;0.85;;;6.00;99.90;;;;;;5036840;28;20181;-68
2021/10/24 03:21:49;;;;;;;0.90;0.60;;;5.90;99.90;;;;;;5036846;28;20290;-67
2021/10/24 03:24:19;;;;;;;2.08;1.13;;;5.90;99.90;;;;;;5037229;28;20181;-67
2021/10/24 03:26:48;;;;;;;0.90;0.70;;;6.00;99.90;;;;;;5036487;28;20212;-69
2021/10/24 03:29:18;;;;;;;2.28;1.48;;;6.10;99.90;;;;;;5036439;28;20200;-68
2021/10/24 03:31:46;;;;;;;1.27;1.08;;;6.00;99.90;;;;;;5054437;28;20231;-67
2021/10/24 03:34:14;;;;;;;1.60;1.50;;;6.10;99.90;;;;;;5054526;28;20658;-67
2021/10/24 03:36:42;;;;;;;0.90;0.60;;;6.10;99.90;;;;;;5036330;28;20607;-69
2021/10/24 03:39:11;;;;;;;0.80;0.60;;;6.20;99.90;;;;;;5036265;28;20228;-69
2021/10/24 03:41:39;;;;;;;0.90;0.65;;;6.20;99.90;;;;;;5036236;28;20619;-69
2021/10/24 03:44:10;;;;;;;0.90;0.70;;;6.30;99.90;;;;;;5035928;28;20248;-69
2021/10/24 03:46:40;;;;;;;1.25;1.15;;;6.30;99.90;;;;;;5035939;28;20673;-69
2021/10/24 03:49:11;;;;;;;1.35;0.82;;;6.40;99.90;;;;;;5036048;28;20286;-68
2021/10/24 03:51:43;;;;;;;1.25;0.95;;;6.50;99.90;;;;;;5036422;28;20234;-69
2021/10/24 03:54:12;;;;;;;1.77;0.73;;;6.60;99.90;;;;;;5036017;28;20208;-69
2021/10/24 03:56:41;;;;;;;0.80;0.50;;;6.70;99.90;;;;;;5035789;28;20201;-67
2021/10/24 03:59:09;;;;;;;1.73;1.23;;;6.80;99.90;;;;;;5036074;28;20613;-68
2021/10/24 04:01:39;;;;;;;2.30;1.35;;;6.80;99.90;;;;;;5036253;28;20272;-69
2021/10/24 04:04:08;;;;;;;1.00;0.60;;;7.00;99.90;;;;;;5054366;28;20184;-69
2021/10/24 04:06:38;;;;;;;0.90;0.70;;;6.90;99.90;;;;;;5036106;28;20185;-67
2021/10/24 04:09:07;;;;;;;1.70;0.95;;;6.90;99.90;;;;;;5035868;28;20224;-69
2021/10/24 04:11:36;;;;;;;2.42;0.85;;;7.00;99.90;;;;;;5035792;28;20252;-69
2021/10/24 04:14:06;;;;;;;0.82;0.55;;;7.10;99.90;;;;;;5035834;28;20209;-67
2021/10/24 04:16:36;;;;;;;0.88;0.60;;;7.10;99.90;;;;;;5036028;28;20279;-69
2021/10/24 04:19:32;;;;;;;1.00;0.50;;;7.20;99.90;;;;;;5051288;28;20204;-67
2021/10/24 04:22:02;;;;;;;1.13;0.80;;;7.30;99.90;;;;;;5034749;28;20766;-68
2021/10/24 04:24:31;;;;;;;0.80;0.50;;;7.20;99.90;;;;;;5035543;28;20238;-69
2021/10/24 04:26:59;;;;;;;0.88;0.60;;;7.30;99.90;;;;;;5053284;28;20193;-68
2021/10/24 04:29:27;;;;;;;1.00;0.75;;;7.40;99.90;;;;;;5034787;28;20242;-68
2021/10/24 04:31:56;;;;;;;1.38;0.80;;;7.40;99.90;;;;;;5052535;28;20633;-67
2021/10/24 04:34:27;;;;;;;0.90;0.60;;;7.30;99.90;;;;;;5034767;28;20212;-67
2021/10/24 04:36:56;;;;;;;0.80;0.50;;;7.40;99.90;;;;;;5052915;28;20188;-67
2021/10/24 04:39:24;;;;;;;3.17;0.98;;;7.50;99.90;;;;;;5035169;28;20284;-67
2021/10/24 04:41:53;;;;;;;1.20;0.95;;;7.30;99.90;;;;;;5034588;28;20213;-68
2021/10/24 04:44:21;;;;;;;1.00;0.68;;;7.40;99.90;;;;;;5034851;28;20184;-67
2021/10/24 04:46:50;;;;;;;0.90;0.60;;;7.40;99.90;;;;;;5034484;28;20271;-67
2021/10/24 04:49:19;;;;;;;1.10;0.70;;;7.40;99.90;;;;;;5034654;28;20184;-66
2021/10/24 04:51:47;;;;;;;1.13;0.70;;;7.40;99.90;;;;;;5052236;28;20205;-65
2021/10/24 04:54:16;;;;;;;1.02;0.57;;;7.40;99.90;;;;;;5034343;28;20312;-66
2021/10/24 04:56:45;;;;;;;1.23;0.82;;;7.30;99.90;;;;;;5034453;28;20571;-65
2021/10/24 04:59:13;;;;;;;0.80;0.50;;;7.30;99.90;;;;;;5034536;28;20228;-66
2021/10/24 05:01:43;;;;;;;1.42;1.08;;;7.20;99.90;;;;;;5034646;28;20583;-67
2021/10/24 05:04:12;;;;;;;1.23;1.02;;;7.10;99.90;;;;;;5052433;28;20211;-67
2021/10/24 05:06:40;;;;;;;0.90;0.63;;;7.00;99.90;;;;;;5033974;28;20598;-68
2021/10/24 05:09:09;;;;;;;0.80;0.50;;;6.90;99.90;;;;;;5034323;28;20203;-66
2021/10/24 05:11:39;;;;;;;0.90;0.77;;;6.80;99.90;;;;;;5034511;28;20280;-68
2021/10/24 05:14:08;;;;;;;0.80;0.50;;;6.70;99.90;;;;;;5035125;28;20316;-65
2021/10/24 05:16:36;;;;;;;1.48;1.38;;;6.60;99.90;;;;;;5034844;28;20669;-65
2021/10/24 05:19:06;;;;;;;0.90;0.60;;;6.40;99.90;;;;;;5034615;28;20664;-67
2021/10/24 05:21:34;;;;;;;0.80;0.60;;;6.40;99.90;;;;;;5034495;28;20203;-68
2021/10/24 05:24:03;;;;;;;0.80;0.50;;;6.20;99.90;;;;;;5051819;28;20321;-68
2021/10/24 05:26:33;;;;;;;0.90;0.70;;;6.20;99.90;;;;;;5034327;28;20549;-65
2021/10/24 05:29:03;;;;;;;0.90;0.70;;;6.10;99.90;;;;;;5051938;28;20715;-66
2021/10/24 05:31:32;;;;;;;0.90;0.60;;;5.90;99.90;;;;;;5034167;28;20188;-65
2021/10/24 05:34:19;;;;;;;0.80;0.60;;;6.00;99.90;;;;;;5051822;28;20199;-66
2021/10/24 05:36:56;;;;;;;1.30;0.73;;;5.90;99.90;;;;;;5033697;28;20253;-67
2021/10/24 05:39:24;;;;;;;0.93;0.80;;;5.80;99.90;;;;;;5051683;28;20185;-67
2021/10/24 05:41:58;;;;;;;1.00;0.90;;;5.70;99.90;;;;;;5033661;28;20226;-68
2021/10/24 05:44:28;;;;;;;0.90;0.60;;;5.60;99.90;;;;;;5051909;28;20238;-66
2021/10/24 05:46:57;;;;;;;1.30;0.68;;;5.60;99.90;;;;;;5034376;28;20696;-67
2021/10/24 05:49:28;;;;;;;0.90;0.75;;;5.60;99.90;;;;;;5033479;28;20189;-65
2021/10/24 05:51:57;;;;;;;1.17;0.60;;;5.60;99.90;;;;;;5033909;28;20533;-67
2021/10/24 05:54:25;;;;;;;1.17;0.70;;;5.60;99.90;;;;;;5033850;28;20258;-69
2021/10/24 05:56:54;;;;;;;0.85;0.60;;;5.60;99.90;;;;;;5034997;28;20192;-67
2021/10/24 05:59:56;;;;;;;1.27;0.70;;;5.60;99.90;;;;;;5029953;28;20277;-68
2021/10/24 06:02:26;;;;;;;1.00;0.57;;;5.60;99.90;;;;;;5033616;28;20312;-64
2021/10/24 06:05:13;;;;;;;1.05;0.80;;;5.60;99.90;;;;;;5052633;28;20187;-65
2021/10/24 06:07:41;;;;;;;0.82;0.52;;;5.60;99.90;;;;;;5034498;28;20201;-65
2021/10/24 06:10:14;;;;;;;1.90;1.75;;;5.70;99.90;;;;;;5052322;28;20243;-66
2021/10/24 06:12:45;;;;;;;1.48;0.77;;;5.70;99.90;;;;;;5034887;28;20762;-66
2021/10/24 06:15:17;;;;;;;1.52;0.60;;;5.80;99.90;;;;;;5033936;28;20219;-66
2021/10/24 06:17:46;;;;;;;0.80;0.57;;;5.80;99.90;;;;;;5051188;28;20255;-65
2021/10/24 06:20:22;;;;;;;2.75;1.10;;;5.80;99.90;;;;;;5033613;28;20509;-66
2021/10/24 06:22:53;;;;;;;0.80;0.52;;;5.90;99.90;;;;;;5033538;28;20298;-67
2021/10/24 06:25:21;;;;;;;1.00;0.88;;;5.90;99.90;;;;;;5033397;28;20279;-67
2021/10/24 06:27:57;;;;;;;0.90;0.68;;;6.00;99.90;;;;;;5033940;28;20195;-69
2021/10/24 06:30:27;;;;;;;0.90;0.70;;;6.00;99.90;;;;;;5052208;28;20220;-67
2021/10/24 06:33:13;;;;;;;1.25;1.05;;;6.10;99.90;;;;;;5051648;28;20217;-68
2021/10/24 06:35:59;;;;;;;1.48;0.70;;;6.20;99.90;;;;;;5051577;28;20272;-66
2021/10/24 06:38:46;;;;;;;0.90;0.60;;;6.20;99.90;;;;;;5050997;28;20783;-67
2021/10/24 06:41:25;;;;;;;0.90;0.60;;;6.30;99.90;;;;;;5033163;28;20254;-66
2021/10/24 06:44:11;;;;;;;0.88;0.60;;;6.40;99.90;;;;;;5051717;28;20199;-66
2021/10/24 06:46:47;;;;;;;1.50;1.40;;;6.40;99.90;;;;;;5055298;28;20203;-67
2021/10/24 06:49:34;;;;;;;1.05;0.73;;;6.50;99.90;;;;;;5055141;28;20204;-67
2021/10/24 06:52:21;;;;;;;1.00;0.90;;;6.50;99.90;;;;;;5055048;28;20684;-66
2021/10/24 06:55:01;;;;;;;2.08;1.13;;;6.50;99.90;;;;;;5037217;28;20642;-65
2021/10/24 06:57:52;;;;;;;0.90;0.60;;;6.60;99.90;;;;;;5055977;28;20558;-66
2021/10/24 07:00:52;;;;;;;2.15;1.05;;;6.70;99.90;;;;;;5010804;28;20708;-68
2021/10/24 07:03:41;;;;;;;0.90;0.70;;;6.70;99.90;;;;;;5055183;28;20315;-66
2021/10/24 07:06:24;;;;;;;2.17;0.95;;;6.70;99.90;;;;;;5055523;28;20192;-67
2021/10/24 07:09:11;;;;;;;1.65;1.05;;;6.90;99.90;;;;;;5055387;28;20184;-67
2021/10/24 07:11:57;;;;;;;0.80;0.50;;;6.90;99.90;;;;;;5038937;28;20289;-65
2021/10/24 07:14:27;;;;;;;0.90;0.50;;;6.90;99.90;;;;;;5039406;28;20207;-65
2021/10/24 07:16:56;;;;;;;1.50;1.35;;;6.90;99.90;;;;;;5038096;28;20287;-67
2021/10/24 07:19:26;;;;;;;2.35;1.30;;;7.00;99.90;;;;;;5039962;28;20211;-68
2021/10/24 07:21:54;;;;;;;1.63;0.93;;;7.00;99.90;;;;;;5038338;28;20231;-66
2021/10/24 07:24:55;;;;;;;1.08;0.70;;;7.10;99.90;;;;;;5021789;28;20285;-68
2021/10/24 07:27:23;;;;;;;0.90;0.65;;;7.00;99.90;;;;;;5037212;28;20188;-66
2021/10/24 07:29:52;;;;;;;0.90;0.75;;;7.00;99.90;;;;;;5036579;28;20674;-66
2021/10/24 07:32:21;;;;;;;1.00;0.77;;;7.10;99.90;;;;;;5053924;28;20223;-66
2021/10/24 07:34:57;;;;;;;0.95;0.85;;;7.20;99.90;;;;;;5036452;28;20242;-67
2021/10/24 07:37:25;;;;;;;1.35;1.05;;;7.20;99.90;;;;;;5036154;28;20256;-67
2021/10/24 07:39:53;;;;;;;3.38;3.08;;;7.30;99.90;;;;;;5054505;28;20192;-68
2021/10/24 07:42:22;;;;;;;1.48;0.90;;;7.30;99.90;;;;;;5036258;28;20287;-67
2021/10/24 07:44:50;;;;;;;1.33;0.60;;;7.30;99.90;;;;;;5036204;28;20665;-67
2021/10/24 07:47:19;;;;;;;1.20;0.90;;;7.50;99.90;;;;;;5035766;28;20723;-68
2021/10/24 07:49:48;;;;;;;2.78;1.67;;;7.60;99.90;;;;;;5053945;28;20169;-69
2021/10/24 07:52:18;;;;;;;0.98;0.60;;;7.70;99.90;;;;;;5036016;28;20220;-67
2021/10/24 07:54:47;;;;;;;0.80;0.50;;;7.90;99.90;;;;;;5036285;28;20682;-67
2021/10/24 07:57:15;;;;;;;1.13;0.63;;;8.00;99.90;;;;;;5034656;28;20276;-66
2021/10/24 07:59:43;;;;;;;1.00;0.68;;;8.20;99.90;;;;;;5035732;28;20189;-67
2021/10/24 08:02:12;;;;;;;0.90;0.70;;;8.30;99.90;;;;;;5035582;28;20212;-67
2021/10/24 08:04:41;;;;;;;1.55;1.45;;;8.30;99.90;;;;;;5036241;28;20238;-67
2021/10/24 08:07:09;;;;;;;1.20;0.80;;;8.50;99.90;;;;;;5036468;28;20661;-67
2021/10/24 08:09:40;;;;;;;6.07;3.20;;;8.50;99.90;;;;;;5036214;28;20223;-66
2021/10/24 08:12:08;;;;;;;1.23;1.13;;;8.70;99.90;;;;;;5036131;28;20244;-67
2021/10/24 08:14:37;;;;;;;0.90;0.67;;;8.80;99.90;;;;;;5036636;28;20193;-65
2021/10/24 08:17:06;;;;;;;0.90;0.50;;;8.90;99.90;;;;;;5035978;28;20868;-67
2021/10/24 08:19:35;;;;;;;1.53;1.00;;;8.90;99.90;;;;;;5035295;28;20216;-67
2021/10/24 08:22:08;;;;;;;1.03;0.80;;;9.10;99.90;;;;;;5032130;28;20616;-67
2021/10/24 08:24:42;;;;;;;1.08;0.60;;;9.10;99.90;;;;;;5035080;28;20435;-67
2021/10/24 08:27:23;;;;;;;1.50;0.98;;;9.10;99.90;;;;;;5034860;28;20197;-66
2021/10/24 08:29:57;;;;;;;0.80;0.52;;;9.10;99.90;;;;;;5024246;28;20228;-67
2021/10/24 08:32:38;;;;;;;1.00;0.70;;;9.10;99.90;;;;;;5018259;28;20251;-68
2021/10/24 08:35:08;;;;;;;0.90;0.60;;;9.10;99.90;;;;;;5033128;28;20181;-67
2021/10/24 08:37:37;;;;;;;0.90;0.60;;;9.10;99.90;;;;;;5015080;28;20206;-68
2021/10/24 08:40:09;;;;;;;3.83;1.53;;;9.30;99.90;;;;;;5033129;28;20416;-67
2021/10/24 08:42:39;;;;;;;1.75;0.95;;;9.60;99.90;;;;;;5032631;28;20452;-68
2021/10/24 08:45:11;;;;;;;1.67;0.90;;;9.60;99.40;;;;;;5014631;28;20284;-67
2021/10/24 08:47:41;;;;;;;1.57;0.80;;;9.70;97.40;;;;;;5032911;28;20494;-68
2021/10/24 08:50:11;;;;;;;0.90;0.60;;;9.70;96.20;;;;;;5032779;28;20416;-67
2021/10/24 08:52:40;;;;;;;0.80;0.53;;;9.80;95.90;;;;;;5032956;28;20461;-67
2021/10/24 08:55:10;;;;;;;1.33;0.70;;;9.80;94.10;;;;;;5032330;28;20402;-68
2021/10/24 08:57:39;;;;;;;2.60;1.40;;;9.90;94.10;;;;;;5032616;28;20471;-67
2021/10/24 09:00:09;;;;;;;1.50;1.23;;;10.10;93.00;;;;;;5032760;28;20903;-68
2021/10/24 09:03:00;;;;;;;1.83;1.53;;;10.30;91.10;;;;;;5014857;28;20454;-68
2021/10/24 09:05:38;;;;;;;1.00;0.70;;;10.10;90.40;;;;;;5032874;28;20809;-66
2021/10/24 09:08:07;;;;;;;1.10;0.70;;;10.10;87.70;;;;;;5032986;28;20387;-68
2021/10/24 09:10:46;;;;;;;1.00;0.70;;;10.30;86.60;;;;;;5035110;28;20448;-67
2021/10/24 09:13:16;;;;;;;1.00;0.80;;;10.60;78.10;;;;;;5036708;28;20436;-68
2021/10/24 09:15:52;;;;;;;1.40;0.90;;;10.80;73.00;;;;;;5018649;28;20574;-67
2021/10/24 09:18:22;;;;;;;1.37;1.23;;;10.80;68.20;;;;;;5052878;28;20482;-65
2021/10/24 09:20:54;;;;;;;1.07;0.77;;;11.10;66.50;;;;;;5032341;28;20435;-67
2021/10/24 09:23:22;;;;;;;0.90;0.60;;;11.00;63.10;;;;;;5052196;28;20461;-67
2021/10/24 09:25:55;;;;;;;3.83;1.13;;;11.00;63.30;;;;;;5052366;28;20421;-67
2021/10/24 09:28:26;;;;;;;1.00;0.70;;;11.20;61.90;;;;;;5054718;28;20398;-68
2021/10/24 09:31:03;;;;;;;0.90;0.60;;;11.00;59.40;;;;;;5058544;28;20427;-66
2021/10/24 09:33:45;;;;;;;0.90;0.60;;;11.10;60.70;;;;;;5058539;28;20694;-68
2021/10/24 09:36:23;;;;;;;1.20;0.80;;;11.10;59.50;;;;;;5054863;28;20437;-67
2021/10/24 09:39:10;;;;;;;1.10;0.70;;;11.20;59.00;;;;;;5054362;28;20397;-68
2021/10/24 09:41:40;;;;;;;1.47;1.13;;;11.10;57.30;;;;;;5051794;28;20852;-67
2021/10/24 09:44:09;;;;;;;1.00;0.70;;;11.20;58.50;;;;;;5052022;28;20585;-67
2021/10/24 09:46:38;;;;;;;1.20;0.63;;;11.40;55.10;;;;;;5033348;28;20493;-66
2021/10/24 09:49:17;;;;;;;1.30;1.00;;;11.50;53.10;;;;;;5051749;28;20442;-67
2021/10/24 09:51:47;;;;;;;1.13;0.63;;;11.50;52.90;;;;;;5033490;28;20425;-67
2021/10/24 09:54:23;;;;;;;1.37;1.17;;;11.60;53.60;;;;;;5051778;28;20427;-67
2021/10/24 09:56:54;;;;;;;1.73;0.70;;;11.70;52.00;;;;;;5051544;28;20446;-65
2021/10/24 09:59:23;;;;;;;0.90;0.67;;;11.80;48.60;;;;;;5051514;28;20425;-70
2021/10/24 10:01:52;;;;;;;0.80;0.50;;;11.80;50.70;;;;;;5051469;28;20505;-65
2021/10/24 10:04:23;;;;;;;0.80;0.50;;;11.90;49.50;;;;;;5051051;28;20407;-68
2021/10/24 10:06:52;;;;;;;1.70;1.10;;;11.90;50.70;;;;;;5051340;28;20839;-68
2021/10/24 10:09:21;;;;;;;0.87;0.60;;;11.90;51.20;;;;;;5033252;28;20440;-67
2021/10/24 10:11:55;;;;;;;1.00;0.63;;;12.00;54.40;;;;;;5033184;28;20433;-67
2021/10/24 10:14:26;;;;;;;1.73;1.27;;;12.00;54.00;;;;;;5051008;28;20469;-68
2021/10/24 10:16:59;;;;;;;0.90;0.70;;;12.20;55.00;;;;;;5050838;28;20441;-67
2021/10/24 10:19:30;;;;;;;1.40;1.17;;;12.20;55.40;;;;;;5050231;28;20478;-67
2021/10/24 10:22:25;;;;;;;1.20;0.60;;;12.20;52.10;;;;;;5050820;28;20449;-67
2021/10/24 10:24:59;;;;;;;1.20;0.50;;;12.10;55.00;;;;;;5051057;28;20443;-67
2021/10/24 10:27:40;;;;;;;0.90;0.50;;;12.20;55.50;;;;;;5050880;28;20695;-67
2021/10/24 10:30:11;;;;;;;0.90;0.60;;;12.20;56.40;;;;;;5051060;28;20418;-66
2021/10/24 10:32:41;;;;;;;3.33;0.73;;;12.00;52.80;;;;;;5050708;28;20465;-68
2021/10/24 10:35:11;;;;;;;7.27;1.13;;;11.80;52.50;;;;;;5050874;28;20465;-67
2021/10/24 10:37:51;;;;;;;1.00;0.67;;;11.90;49.00;;;;;;5050250;28;20466;-68
2021/10/24 10:40:23;;;;;;;0.90;0.50;;;12.10;41.60;;;;;;5050605;28;20420;-69
2021/10/24 10:42:59;;;;;;;0.80;0.50;;;12.20;39.60;;;;;;5050816;28;20421;-68
2021/10/24 10:45:39;;;;;;;0.80;0.40;;;12.20;37.60;;;;;;5050421;28;20753;-67
2021/10/24 10:48:10;;;;;;;2.40;1.27;;;12.20;39.00;;;;;;5050447;28;20798;-68
2021/10/24 10:50:47;;;;;;;0.90;0.50;;;12.20;40.10;;;;;;5050602;28;20507;-68
2021/10/24 10:53:53;;;;;;;2.00;0.87;;;12.10;39.00;;;;;;5050504;28;20450;-65
2021/10/24 10:56:24;;;;;;;0.80;0.40;;;12.00;40.10;;;;;;4990089;28;20449;-69
2021/10/24 10:58:55;;;;;;;1.17;1.07;;;12.00;41.00;;;;;;4989862;28;20897;-68
2021/10/24 11:01:35;;;;;;;1.10;0.50;;;12.00;39.60;;;;;;5020829;28;20492;-67
2021/10/24 11:04:21;;;;;;;0.90;0.57;;;12.00;42.30;;;;;;5051177;28;20909;-66
2021/10/24 11:07:00;;;;;;;0.90;0.50;;;12.10;41.50;;;;;;5050739;28;20419;-67
2021/10/24 11:09:48;;;;;;;1.10;0.67;;;12.10;43.30;;;;;;5051052;28;20517;-66
2021/10/24 11:12:44;;;;;;;0.90;0.60;;;12.20;41.50;;;;;;5033227;28;21073;-66
2021/10/24 11:15:31;;;;;;;0.80;0.50;;;12.20;41.00;;;;;;5050224;28;20915;-66
2021/10/24 11:18:06;;;;;;;0.90;0.63;;;12.20;39.30;;;;;;5049628;28;20511;-67
2021/10/24 11:20:46;;;;;;;0.80;0.50;;;12.20;37.60;;;;;;5050574;28;20409;-68
2021/10/24 11:23:20;;;;;;;1.13;1.03;;;12.20;36.50;;;;;;5050481;28;20778;-66
2021/10/24 11:25:51;;;;;;;0.90;0.53;;;12.30;31.60;;;;;;5050528;28;20977;-65
2021/10/24 11:28:25;;;;;;;1.10;0.60;;;12.40;31.70;;;;;;5050506;28;20809;-67
2021/10/24 11:31:06;;;;;;;0.80;0.47;;;12.40;31.50;;;;;;5052688;28;20393;-68
2021/10/24 11:33:48;;;;;;;0.80;0.40;;;12.60;31.30;;;;;;5053705;28;20429;-68
2021/10/24 11:36:21;;;;;;;1.00;0.60;;;12.70;30.00;;;;;;5053639;28;20405;-67
2021/10/24 11:38:54;;;;;;;0.83;0.50;;;12.90;30.80;;;;;;5053693;28;20483;-68
2021/10/24 11:41:23;;;;;;;0.90;0.50;;;12.80;30.20;;;;;;5053398;28;20386;-66
2021/10/24 11:44:03;;;;;;;0.90;0.60;;;12.80;31.40;;;;;;5053565;28;20940;-68
2021/10/24 11:46:33;;;;;;;1.13;0.83;;;12.80;31.10;;;;;;5053740;28;20423;-66
2021/10/24 11:49:03;;;;;;;0.90;0.50;;;12.80;32.30;;;;;;5053851;28;20515;-67
2021/10/24 11:51:33;;;;;;;0.90;0.60;;;12.70;33.70;;;;;;5053396;28;20405;-67
2021/10/24 11:54:03;;;;;;;0.80;0.50;;;12.70;31.80;;;;;;5053486;28;20409;-67
2021/10/24 11:56:51;;;;;;;0.87;0.50;;;12.60;30.30;;;;;;5053760;28;20434;-68
2021/10/24 11:59:25;;;;;;;0.80;0.50;;;12.80;33.30;;;;;;5053884;28;20433;-68
2021/10/24 12:01:56;;;;;;;1.70;0.80;;;12.80;32.70;;;;;;5035738;28;20454;-68
2021/10/24 12:04:28;;;;;;;1.03;0.80;;;12.90;35.60;;;;;;5054507;28;20390;-67
2021/10/24 12:06:59;;;;;;;0.80;0.50;;;13.00;34.70;;;;;;5055347;28;20435;-66
2021/10/24 12:09:39;;;;;;;0.90;0.60;;;13.00;35.00;;;;;;5054870;28;20858;-67
2021/10/24 12:12:10;;;;;;;0.90;0.70;;;13.00;34.60;;;;;;5054843;28;20417;-69
2021/10/24 12:14:49;;;;;;;1.67;1.00;;;12.90;36.30;;;;;;5054437;28;20754;-68
2021/10/24 12:17:20;;;;;;;0.80;0.50;;;12.80;37.50;;;;;;5054936;28;20433;-67
2021/10/24 12:19:50;;;;;;;0.80;0.50;;;12.90;39.30;;;;;;5060807;28;20441;-67
2021/10/24 12:22:18;;;;;;;0.80;0.50;;;13.00;37.00;;;;;;5042559;28;20466;-68
2021/10/24 12:24:49;;;;;;;0.80;0.50;;;13.00;38.20;;;;;;5057225;28;20777;-67
2021/10/24 12:27:22;;;;;;;0.90;0.60;;;13.00;40.80;;;;;;5056453;28;20426;-67
2021/10/24 12:30:03;;;;;;;0.90;0.50;;;13.00;42.00;;;;;;5056793;28;20452;-68
2021/10/24 12:32:33;;;;;;;1.10;0.70;;;13.00;41.30;;;;;;5053289;28;20433;-68
2021/10/24 12:35:09;;;;;;;0.80;0.50;;;13.00;38.40;;;;;;5053232;28;20733;-68
2021/10/24 12:37:39;;;;;;;0.80;0.50;;;13.00;35.10;;;;;;5052768;28;20432;-68
2021/10/24 12:40:23;;;;;;;1.07;0.70;;;13.00;25.50;;;;;;5052856;28;20463;-68
2021/10/24 12:43:09;;;;;;;0.80;0.50;;;13.10;26.00;;;;;;5052575;28;20463;-69
2021/10/24 12:45:46;;;;;;;0.80;0.50;;;13.00;25.10;;;;;;5053108;28;20739;-69
2021/10/24 12:48:17;;;;;;;0.80;0.50;;;13.10;27.40;;;;;;5054135;28;20844;-69
2021/10/24 12:50:46;;;;;;;0.80;0.50;;;13.20;28.60;;;;;;5055446;28;20390;-68
2021/10/24 12:53:17;;;;;;;0.80;0.50;;;13.00;28.10;;;;;;5055667;28;20454;-68
2021/10/24 12:56:00;;;;;;;0.80;0.40;;;13.00;28.30;;;;;;5035864;28;20444;-68
2021/10/24 12:58:28;;;;;;;1.17;0.70;;;12.90;29.90;;;;;;5052732;28;20437;-67
2021/10/24 13:00:56;;;;;;;0.90;0.50;;;12.80;29.20;;;;;;5052534;28;20423;-68
2021/10/24 13:03:26;;;;;;;0.90;0.50;;;12.80;30.40;;;;;;5052443;28;20838;-68
2021/10/24 13:05:55;;;;;;;0.80;0.50;;;12.80;29.20;;;;;;5034488;28;20488;-68
2021/10/24 13:08:23;;;;;;;0.80;0.50;;;12.80;33.40;;;;;;5052557;28;20428;-68
2021/10/24 13:10:51;;;;;;;1.37;0.73;;;12.80;32.30;;;;;;5052311;28;20752;-68
2021/10/24 13:13:19;;;;;;;0.90;0.60;;;12.80;31.10;;;;;;5052250;28;20439;-66
2021/10/24 13:15:47;;;;;;;0.80;0.50;;;12.80;33.30;;;;;;5052442;28;20752;-68
2021/10/24 13:18:15;;;;;;;1.00;0.60;;;12.80;34.70;;;;;;5051668;28;20409;-68
2021/10/24 13:20:46;;;;;;;0.80;0.50;;;12.90;32.50;;;;;;5042092;28;20395;-69